This is the latest recevied weather packets stored in our database for station/object KJ5FA-9. If no packets are shown the sender has not sent any weather packets the latest 10 day(s).
| Time | Temp. | Humidity | Pressure | Rain* | Wind** | Luminosity | Snow |
|---|---|---|---|---|---|---|---|
| 1787410460 | 30.56° C | 60% | 1017.6 hPa | 0 mm | - | - | - |
| 1787409668 | 30° C | 62% | 1017.4 hPa | 0 mm | 0.45 m/s, 39° | - | - |
| 1787408960 | 29.44° C | 65% | 1017.5 hPa | 0 mm | - | - | - |
| 1787407868 | 27.78° C | 71% | 1017.6 hPa | 0 mm | 0.45 m/s, 357° | - | - |
| 1787407462 | 27.22° C | 72% | 1017.6 hPa | 0 mm | - | - | - |
| 1787406068 | 26.11° C | 76% | 1017.5 hPa | 0 mm | 0.45 m/s, 49° | - | - |
| 1787405960 | 26.11° C | 76% | 1017.5 hPa | 0 mm | - | - | - |
| 1787404460 | 25.56° C | 79% | 1017.3 hPa | 0 mm | - | - | - |
| 1787404268 | 25.56° C | 80% | 1017.2 hPa | 0 mm | 0.45 m/s, 8° | - | - |
| 1787402960 | 23.89° C | 88% | 1016.9 hPa | 0 mm | - | - | - |
| 1787402468 | 23.33° C | 89% | 1016.8 hPa | 0 mm | 0.89 m/s, 147° | - | - |
| 1787401460 | 23.33° C | 90% | 1017 hPa | 0 mm | - | - | - |
| 1787400668 | 22.78° C | 90% | 1016.7 hPa | 0 mm | 0.45 m/s, 200° | - | - |
| 1787399960 | 22.78° C | 90% | 1016.8 hPa | 0 mm | - | - | - |
| 1787398868 | 22.78° C | 89% | 1016.7 hPa | 0 mm | 0.45 m/s, 330° | - | - |
| 1787398460 | 22.78° C | 89% | 1016.7 hPa | 0 mm | - | - | - |
| 1787397068 | 23.33° C | 89% | 1016.4 hPa | 0 mm | 0 m/s | - | - |
| 1787396961 | 23.33° C | 89% | 1016.4 hPa | 0 mm | - | - | - |
| 1787395460 | 23.33° C | 86% | 1016.4 hPa | 0 mm | - | - | - |
| 1787395268 | 23.33° C | 86% | 1016.3 hPa | 0 mm | 0.45 m/s, 25° | - | - |
| 1787393960 | 23.89° C | 86% | 1016.1 hPa | 0 mm | - | - | - |
| 1787393468 | 23.89° C | 86% | 1016.2 hPa | 0 mm | 0.89 m/s, 8° | - | - |
| 1787392460 | 23.89° C | 85% | 1016.6 hPa | 0 mm | - | - | - |
| 1787391668 | 23.89° C | 84% | 1016.2 hPa | 0 mm | 0 m/s | - | - |
| 1787390960 | 24.44° C | 84% | 1016.2 hPa | 0 mm | - | - | - |
* Rain latest hour (hover to see other rain measurements)
** Current wind speed in m/s (hover to see current wind gust speed)